CheckWX is a tool to help pilots better visualize weather data.  It is not intended as a substitute for an official pre-flight weather briefing.

05:17:15 UTC

KELO METAR
Ely Municipal Airport
Ely, Minnesota, USA
Current

21 mins ago

KELO 200456Z AUTO 21003KT 10SM CLR M13/M19 A3022 RMK AO2
Observed
Feb-20 @ 04:56 UTC
Wind
  • 210° at 3 KTS
Visibility
16,093 meters
Flight Rules
VFR
Cloud Levels
  • Clear skies
Temperature
-13°C / 9°F
Dewpoint
-19°C / -2°F
Humidity
61%
Altimeter
30.22" Hg
Pressure
1023.42 hPa
Previous

42 mins ago

KELO 200435Z AUTO 21004KT 10SM CLR M12/M19 A3024 RMK AO2
Observed
Feb-20 @ 04:35 UTC
Wind
  • 210° at 4 KTS
Visibility
16,093 meters
Flight Rules
VFR
Cloud Levels
  • Clear skies
Temperature
-12°C / 10°F
Dewpoint
-19°C / -2°F
Humidity
56%
Altimeter
30.24" Hg
Pressure
1024.02 hPa
Previous

1 hour ago

KELO 200415Z AUTO 20005KT 10SM CLR M13/M19 A3025 RMK AO2
Observed
Feb-20 @ 04:15 UTC
Wind
  • 200° at 5 KTS
Visibility
16,093 meters
Flight Rules
VFR
Cloud Levels
  • Clear skies
Temperature
-13°C / 9°F
Dewpoint
-19°C / -2°F
Humidity
61%
Altimeter
30.25" Hg
Pressure
1024.42 hPa